createdAt,value
2018-03-01T00:02:14.212Z,18.08
2018-03-01T00:04:42.669Z,21.42
2018-03-01T00:07:11.141Z,23.85
2018-03-01T00:09:39.577Z,20.75
2018-03-01T00:12:08.022Z,21.12
2018-03-01T00:14:36.715Z,17.60
2018-03-01T00:17:05.157Z,10.80
2018-03-01T00:19:33.582Z,16.25
2018-03-01T00:22:02.051Z,12.20
2018-03-01T00:24:30.481Z,13.23
2018-03-01T00:26:58.912Z,20.08
2018-03-01T00:29:27.402Z,15.40
2018-03-01T00:31:55.817Z,14.90
2018-03-01T00:34:24.264Z,18.10
2018-03-01T00:36:52.750Z,20.20
2018-03-01T00:39:21.169Z,15.68
2018-03-01T00:41:49.586Z,16.40
2018-03-01T00:44:18.039Z,16.48
2018-03-01T00:46:46.455Z,15.07
2018-03-01T00:49:14.893Z,24.92
2018-03-01T00:51:44.149Z,15.43
2018-03-01T00:54:12.562Z,20.30
2018-03-01T00:56:40.978Z,15.07
2018-03-01T00:59:09.431Z,14.45
2018-03-01T01:01:37.860Z,17.15
2018-03-01T01:04:06.292Z,15.45
2018-03-01T01:06:34.758Z,22.23
2018-03-01T01:09:03.214Z,24.27
2018-03-01T01:11:31.641Z,22.67
2018-03-01T01:14:00.117Z,22.13
2018-03-01T01:16:28.535Z,16.85
2018-03-01T01:18:56.946Z,8.35
2018-03-01T01:21:25.402Z,23.08
2018-03-01T01:23:53.848Z,11.73
2018-03-01T01:26:22.275Z,26.80
2018-03-01T01:28:50.748Z,21.02
2018-03-01T01:31:19.192Z,25.08
2018-03-01T01:33:47.629Z,14.10
2018-03-01T01:36:16.117Z,22.62
2018-03-01T01:38:44.557Z,25.08
2018-03-01T01:41:12.993Z,18.08
2018-03-01T01:43:41.481Z,19.48
2018-03-01T01:46:09.898Z,15.60
2018-03-01T01:48:38.340Z,17.80
2018-03-01T01:51:06.852Z,24.10
2018-03-01T01:53:35.301Z,23.45
2018-03-01T01:56:03.769Z,26.98
2018-03-01T01:58:32.233Z,20.17
2018-03-01T02:01:00.659Z,22.92
2018-03-01T02:03:29.101Z,22.73
2018-03-01T02:05:57.579Z,23.52
2018-03-01T02:08:26.009Z,25.05
2018-03-01T02:10:54.431Z,15.75
2018-03-01T02:13:22.932Z,14.57
2018-03-01T02:15:51.374Z,20.35
2018-03-01T02:18:19.824Z,26.00
2018-03-01T02:20:48.318Z,23.00
2018-03-01T02:23:16.762Z,22.52
2018-03-01T02:25:45.188Z,12.88
2018-03-01T02:28:13.680Z,20.80
2018-03-01T02:30:42.129Z,25.17
2018-03-01T02:33:10.563Z,21.42
2018-03-01T02:35:39.045Z,22.80
2018-03-01T02:38:07.530Z,22.08
2018-03-01T02:40:35.983Z,28.33
2018-03-01T02:43:04.462Z,27.67
2018-03-01T02:45:32.901Z,15.18
2018-03-01T02:48:01.342Z,24.20
2018-03-01T02:50:29.830Z,21.77
2018-03-01T02:52:58.261Z,18.12
2018-03-01T02:55:26.687Z,16.23
2018-03-01T02:57:55.189Z,24.55
2018-03-01T03:00:23.609Z,22.30
2018-03-01T03:02:52.030Z,13.95
2018-03-01T03:05:20.498Z,26.40
2018-03-01T03:07:48.928Z,15.02
2018-03-01T03:10:17.346Z,16.40
2018-03-01T03:12:45.805Z,24.80
2018-03-01T03:15:14.232Z,18.98
2018-03-01T03:17:42.646Z,17.65
2018-03-01T03:20:11.112Z,17.55
2018-03-01T03:22:39.531Z,13.32
2018-03-01T03:25:07.954Z,20.70
2018-03-01T03:27:36.437Z,19.75
2018-03-01T03:30:04.856Z,21.30
2018-03-01T03:32:33.282Z,16.50
2018-03-01T03:35:01.750Z,10.77
2018-03-01T03:37:30.180Z,21.40
2018-03-01T03:39:58.646Z,19.52
2018-03-01T03:42:27.139Z,13.55
2018-03-01T03:44:55.560Z,20.37
2018-03-01T03:47:23.984Z,13.23
2018-03-01T03:49:52.460Z,22.73
2018-03-01T03:52:20.874Z,14.65
2018-03-01T03:54:49.291Z,9.52
2018-03-01T03:57:17.754Z,15.57
2018-03-01T03:59:46.187Z,23.08
2018-03-01T04:02:14.614Z,18.20
2018-03-01T04:04:43.108Z,14.70
2018-03-01T04:07:11.548Z,17.17
2018-03-01T04:09:39.987Z,13.77
2018-03-01T04:12:08.468Z,23.30
2018-03-01T04:14:36.895Z,11.20
2018-03-01T04:17:05.318Z,28.75
2018-03-01T04:19:33.791Z,17.58
2018-03-01T04:22:02.218Z,20.35
2018-03-01T04:24:30.657Z,30.48
2018-03-01T04:26:59.133Z,23.05
2018-03-01T04:29:27.560Z,21.60
2018-03-01T04:31:55.997Z,22.02
2018-03-01T04:34:24.707Z,22.40
2018-03-01T04:36:53.139Z,29.05
2018-03-01T04:39:21.562Z,25.80
2018-03-01T04:41:50.028Z,11.98
2018-03-01T04:44:18.446Z,17.05
2018-03-01T04:46:46.870Z,21.90
2018-03-01T04:49:15.350Z,15.57
2018-03-01T04:51:43.786Z,23.55
2018-03-01T04:54:12.210Z,17.92
2018-03-01T04:56:40.670Z,24.52
2018-03-01T04:59:09.092Z,19.33
2018-03-01T05:01:37.510Z,26.08
2018-03-01T05:04:06.042Z,21.73
2018-03-01T05:06:34.452Z,26.37
2018-03-01T05:09:02.899Z,22.25
2018-03-01T05:11:31.354Z,11.90
2018-03-01T05:13:59.768Z,16.40
2018-03-01T05:16:28.186Z,31.35
2018-03-01T05:18:56.682Z,24.92
2018-03-01T05:21:25.125Z,30.45
2018-03-01T05:23:53.555Z,23.85
2018-03-01T05:26:22.205Z,17.12
2018-03-01T05:28:50.624Z,24.12
2018-03-01T05:31:19.095Z,17.90
2018-03-01T05:33:47.572Z,19.35
2018-03-01T05:36:15.986Z,12.80
2018-03-01T05:38:44.413Z,39.40
2018-03-01T05:41:12.875Z,26.10
2018-03-01T05:43:41.296Z,25.45
2018-03-01T05:46:09.756Z,22.17
2018-03-01T05:48:38.251Z,16.08
2018-03-01T05:51:06.677Z,19.50
2018-03-01T05:53:35.098Z,12.15
2018-03-01T05:56:03.570Z,24.02
2018-03-01T05:58:32.010Z,29.17
2018-03-01T06:01:00.457Z,23.90
2018-03-01T06:03:28.932Z,23.20
2018-03-01T06:05:57.368Z,24.67
2018-03-01T06:08:25.785Z,25.48
2018-03-01T06:10:54.250Z,18.45
2018-03-01T06:13:22.684Z,23.38
2018-03-01T06:15:51.126Z,25.27
2018-03-01T06:18:19.751Z,16.42
2018-03-01T06:20:48.186Z,24.58
2018-03-01T06:23:16.629Z,23.98
2018-03-01T06:25:45.097Z,18.33
2018-03-01T06:28:13.506Z,27.83
2018-03-01T06:30:41.930Z,25.80
2018-03-01T06:33:10.390Z,14.93
2018-03-01T06:35:38.799Z,17.67
2018-03-01T06:38:07.224Z,22.08
2018-03-01T06:40:35.707Z,13.52
2018-03-01T06:43:04.131Z,22.92
2018-03-01T06:45:32.554Z,19.12
2018-03-01T06:48:01.033Z,25.65
2018-03-01T06:50:29.467Z,16.55
2018-03-01T06:52:57.895Z,19.80
2018-03-01T06:55:26.350Z,17.50
2018-03-01T06:57:54.782Z,16.25
2018-03-01T07:00:23.206Z,25.48
2018-03-01T07:02:51.670Z,15.23
2018-03-01T07:05:20.081Z,21.55
2018-03-01T07:07:48.507Z,19.33
2018-03-01T07:10:16.957Z,22.33
2018-03-01T07:12:45.392Z,18.25
2018-03-01T07:15:13.827Z,17.35
2018-03-01T07:17:42.295Z,15.32
2018-03-01T07:20:10.714Z,13.00
2018-03-01T07:22:39.163Z,24.95
2018-03-01T07:25:07.845Z,17.33
2018-03-01T07:27:36.271Z,23.73
2018-03-01T07:30:04.686Z,16.35
2018-03-01T07:32:33.174Z,12.18
2018-03-01T07:35:01.597Z,21.30
2018-03-01T07:37:30.028Z,15.65
2018-03-01T07:39:58.501Z,26.00
2018-03-01T07:42:26.932Z,18.65
2018-03-01T07:44:55.361Z,23.77
2018-03-01T07:47:23.832Z,15.95
2018-03-01T07:49:52.261Z,12.30
2018-03-01T07:52:20.682Z,16.60
2018-03-01T07:54:49.134Z,20.62
2018-03-01T07:57:17.560Z,32.58
2018-03-01T07:59:45.978Z,20.42
2018-03-01T08:02:14.448Z,42.62
2018-03-01T08:04:42.888Z,38.30
2018-03-01T08:07:11.319Z,52.45
2018-03-01T08:09:39.774Z,27.75
2018-03-01T08:12:08.193Z,51.35
2018-03-01T08:14:36.999Z,39.67
2018-03-01T08:17:05.696Z,32.00
2018-03-01T08:19:34.136Z,34.38
2018-03-01T08:22:02.554Z,45.40
2018-03-01T08:24:31.040Z,25.23
2018-03-01T08:26:59.466Z,28.27
2018-03-01T08:29:27.901Z,28.70
2018-03-01T08:31:56.565Z,42.45
2018-03-01T08:34:24.999Z,26.33
2018-03-01T08:36:53.422Z,33.67
2018-03-01T08:39:21.885Z,21.65
2018-03-01T08:41:50.317Z,29.85
2018-03-01T08:44:18.743Z,45.15
2018-03-01T08:46:47.220Z,26.08
2018-03-01T08:49:15.638Z,30.80
2018-03-01T08:51:44.089Z,40.47
2018-03-01T08:54:12.567Z,41.97
2018-03-01T08:56:40.986Z,16.35
2018-03-01T08:59:09.418Z,21.90
2018-03-01T09:01:37.882Z,27.45
2018-03-01T09:04:06.308Z,24.92
2018-03-01T09:06:34.726Z,22.37
2018-03-01T09:09:03.194Z,21.30
2018-03-01T09:11:31.623Z,13.80
2018-03-01T09:14:00.050Z,19.35
2018-03-01T09:16:28.510Z,22.17
2018-03-01T09:18:56.931Z,23.92
2018-03-01T09:21:25.350Z,21.83
2018-03-01T09:23:53.822Z,29.90
2018-03-01T09:26:22.237Z,25.50
2018-03-01T09:28:50.655Z,19.17
2018-03-01T09:31:19.124Z,28.48
2018-03-01T09:33:47.556Z,20.62
2018-03-01T09:36:15.984Z,27.45
2018-03-01T09:38:44.460Z,23.08
2018-03-01T09:41:12.878Z,24.80
2018-03-01T09:43:41.297Z,24.05
2018-03-01T09:46:09.754Z,38.40
2018-03-01T09:48:38.195Z,23.20
2018-03-01T09:51:06.624Z,13.40
2018-03-01T09:53:35.085Z,17.52
2018-03-01T09:56:03.516Z,23.65
2018-03-01T09:58:31.943Z,14.95
2018-03-01T10:01:00.415Z,17.95
2018-03-01T10:03:28.822Z,12.90
2018-03-01T10:05:57.248Z,10.27
2018-03-01T10:08:25.712Z,16.25
2018-03-01T10:10:54.131Z,18.15
2018-03-01T10:13:22.554Z,15.52
2018-03-01T10:15:51.038Z,13.48
2018-03-01T10:18:19.465Z,11.25
2018-03-01T10:20:47.888Z,20.75
2018-03-01T10:23:16.353Z,10.93
2018-03-01T10:25:44.768Z,8.60
2018-03-01T10:28:13.189Z,24.65
2018-03-01T10:30:41.710Z,19.02
2018-03-01T10:33:10.119Z,17.12
2018-03-01T10:35:38.526Z,12.35
2018-03-01T10:38:07.005Z,18.48
2018-03-01T10:40:35.440Z,18.60
2018-03-01T10:43:03.886Z,19.50
2018-03-01T10:45:32.358Z,13.73
2018-03-01T10:48:00.791Z,14.32
2018-03-01T10:50:29.228Z,13.25
2018-03-01T10:52:57.700Z,15.65
2018-03-01T10:55:26.137Z,14.57
2018-03-01T10:57:54.568Z,13.95
2018-03-01T11:00:28.526Z,15.93
2018-03-01T11:02:56.953Z,12.20
2018-03-01T11:05:25.380Z,13.45
2018-03-01T11:07:53.865Z,14.52
2018-03-01T11:10:22.309Z,13.70
2018-03-01T11:12:50.735Z,11.00
2018-03-01T11:15:19.199Z,15.05
2018-03-01T11:17:47.640Z,10.88
2018-03-01T11:20:16.090Z,18.67
2018-03-01T11:22:44.562Z,12.73
2018-03-01T11:25:12.994Z,12.75
2018-03-01T11:27:41.489Z,12.90
2018-03-01T11:30:09.977Z,11.82
2018-03-01T11:32:38.412Z,17.05
2018-03-01T11:35:06.874Z,15.20
2018-03-01T11:37:35.363Z,15.40
2018-03-01T11:40:03.809Z,11.60
2018-03-01T11:42:32.235Z,19.00
2018-03-01T11:45:00.724Z,19.77
2018-03-01T11:47:29.147Z,16.62
2018-03-01T11:49:57.575Z,15.90
2018-03-01T11:52:26.030Z,10.18
2018-03-01T11:54:54.464Z,13.90
2018-03-01T11:57:22.905Z,15.25
2018-03-01T11:59:51.393Z,14.32
2018-03-01T12:02:19.810Z,12.25
2018-03-01T12:04:48.218Z,16.17
2018-03-01T12:07:16.666Z,16.93
2018-03-01T12:09:45.090Z,14.45
2018-03-01T12:12:13.504Z,13.73
2018-03-01T12:14:42.100Z,11.48
2018-03-01T12:17:10.544Z,12.13
2018-03-01T12:19:38.954Z,9.60
2018-03-01T12:22:07.425Z,10.68
2018-03-01T12:24:35.838Z,16.73
2018-03-01T12:27:04.247Z,12.90
2018-03-01T12:29:32.698Z,14.70
2018-03-01T12:32:01.110Z,12.70
2018-03-01T12:34:29.533Z,16.30
2018-03-01T12:36:58.021Z,15.27
2018-03-01T12:39:26.442Z,10.90
2018-03-01T12:41:54.865Z,19.57
2018-03-01T12:44:23.335Z,17.00
2018-03-01T12:46:51.761Z,15.03
2018-03-01T12:49:20.205Z,14.97
2018-03-01T12:51:48.704Z,13.87
2018-03-01T12:54:17.134Z,18.67
2018-03-01T12:56:45.568Z,13.57
2018-03-01T12:59:14.048Z,25.80
2018-03-01T13:01:42.500Z,23.97
2018-03-01T13:04:10.949Z,47.37
2018-03-01T13:06:39.428Z,34.57
2018-03-01T13:09:07.858Z,22.83
2018-03-01T13:11:36.296Z,21.87
2018-03-01T13:14:04.781Z,24.90
2018-03-01T13:16:33.224Z,22.30
2018-03-01T13:19:01.650Z,12.77
2018-03-01T13:21:30.113Z,17.13
2018-03-01T13:23:58.552Z,13.60
2018-03-01T13:26:26.996Z,16.63
2018-03-01T13:28:55.471Z,16.57
2018-03-01T13:31:28.367Z,14.37
2018-03-01T13:34:02.695Z,14.97
2018-03-01T13:36:31.141Z,10.57
2018-03-01T13:38:59.579Z,9.90
2018-03-01T13:41:28.058Z,12.77
2018-03-01T13:43:56.497Z,14.63
2018-03-01T13:46:28.962Z,15.20
2018-03-01T13:48:57.594Z,14.10
2018-03-01T13:51:26.045Z,15.90
2018-03-01T13:53:54.542Z,13.87
2018-03-01T13:56:22.985Z,13.53
2018-03-01T13:58:51.428Z,18.47
2018-03-01T14:01:19.904Z,13.87
2018-03-01T14:03:48.362Z,17.63
2018-03-01T14:06:17.324Z,16.17
2018-03-01T14:08:45.799Z,16.00
2018-03-01T14:11:14.227Z,16.60
2018-03-01T14:13:42.673Z,13.03
2018-03-01T14:16:11.163Z,16.33
2018-03-01T14:21:54.226Z,16.70
2018-03-01T14:24:24.629Z,14.10
2018-03-01T14:30:03.480Z,13.23
2018-03-01T14:32:31.947Z,18.67
2018-03-01T14:35:00.369Z,14.33
2018-03-01T14:37:28.783Z,15.60
2018-03-01T14:39:57.243Z,20.90
2018-03-01T14:42:25.654Z,14.47
2018-03-01T14:44:54.071Z,16.07
2018-03-01T14:47:22.529Z,13.03
2018-03-01T14:49:50.952Z,16.40
2018-03-01T14:52:19.371Z,19.03
2018-03-01T14:54:47.829Z,13.77
2018-03-01T14:57:16.254Z,23.07
2018-03-01T14:59:44.667Z,13.23
2018-03-01T15:02:13.122Z,14.90
2018-03-01T15:04:41.536Z,20.70
2018-03-01T15:07:09.997Z,18.03
2018-03-01T15:09:38.438Z,15.47
2018-03-01T15:12:06.861Z,15.53
2018-03-01T15:14:35.279Z,10.33
2018-03-01T15:17:03.730Z,20.03
2018-03-01T15:19:32.149Z,15.37
2018-03-01T15:22:00.564Z,12.73
2018-03-01T15:24:29.262Z,17.20
2018-03-01T15:26:57.692Z,10.40
2018-03-01T15:29:26.102Z,15.40
2018-03-01T15:31:54.572Z,13.30
2018-03-01T15:34:22.992Z,13.00
2018-03-01T15:36:51.404Z,17.17
2018-03-01T15:39:19.860Z,15.87
2018-03-01T15:41:48.266Z,17.10
2018-03-01T15:44:16.671Z,17.07
2018-03-01T15:46:45.147Z,13.43
2018-03-01T15:49:13.564Z,17.37
2018-03-01T15:51:41.994Z,12.90
2018-03-01T15:54:10.448Z,14.73
2018-03-01T15:56:38.882Z,16.93
2018-03-01T15:59:07.306Z,12.97
2018-03-01T16:01:35.935Z,11.90
2018-03-01T16:04:04.353Z,18.47
2018-03-01T16:06:32.772Z,12.77
2018-03-01T16:09:01.238Z,15.60
2018-03-01T16:11:29.667Z,14.68
2018-03-01T16:13:58.093Z,13.53
2018-03-01T16:16:26.570Z,14.52
2018-03-01T16:18:54.977Z,11.47
2018-03-01T16:21:23.386Z,16.60
2018-03-01T16:23:51.838Z,14.30
2018-03-01T16:26:20.261Z,14.30
2018-03-01T16:28:48.674Z,13.47
2018-03-01T16:31:17.139Z,16.97
2018-03-01T16:33:45.545Z,16.43
2018-03-01T16:36:13.964Z,15.53
2018-03-01T16:38:42.431Z,9.48
2018-03-01T16:41:10.856Z,17.20
2018-03-01T16:43:39.299Z,11.27
2018-03-01T16:46:07.958Z,21.23
2018-03-01T16:48:36.422Z,19.35
2018-03-01T16:51:04.859Z,14.70
2018-03-01T16:53:33.374Z,15.13
2018-03-01T16:56:02.060Z,14.93
2018-03-01T16:58:30.496Z,13.98
2018-03-01T17:00:58.989Z,16.15
2018-03-01T17:03:27.420Z,16.55
2018-03-01T17:05:55.839Z,13.30
2018-03-01T17:08:24.300Z,11.35
2018-03-01T17:10:52.718Z,13.55
2018-03-01T17:13:21.374Z,17.92
2018-03-01T17:15:49.985Z,15.43
2018-03-01T17:18:18.471Z,12.93
2018-03-01T17:20:46.903Z,13.52
2018-03-01T17:23:15.366Z,13.00
2018-03-01T17:25:43.804Z,13.00
2018-03-01T17:28:12.228Z,12.75
2018-03-01T17:30:40.684Z,16.55
2018-03-01T17:33:09.108Z,14.85
2018-03-01T17:35:37.521Z,15.70
2018-03-01T17:38:05.980Z,8.95
2018-03-01T17:40:34.404Z,15.32
2018-03-01T17:43:02.838Z,11.82
2018-03-01T17:45:31.316Z,13.30
2018-03-01T17:47:59.834Z,15.77
2018-03-01T17:50:28.251Z,9.35
2018-03-01T17:52:56.717Z,11.65
2018-03-01T17:55:25.144Z,14.27
2018-03-01T17:57:53.565Z,15.25
2018-03-01T18:00:22.043Z,13.77
2018-03-01T18:02:50.478Z,10.13
2018-03-01T18:05:18.900Z,15.55
2018-03-01T18:07:47.367Z,18.85
2018-03-01T18:10:15.790Z,21.85
2018-03-01T18:12:44.220Z,37.83
2018-03-01T18:15:12.688Z,20.15
2018-03-01T18:17:41.120Z,21.33
2018-03-01T18:20:09.544Z,12.70
2018-03-01T18:22:38.008Z,15.52
2018-03-01T18:25:06.428Z,14.45
2018-03-01T18:27:34.877Z,10.27
2018-03-01T18:30:03.369Z,13.68
2018-03-01T18:32:31.800Z,15.85
2018-03-01T18:35:00.490Z,22.48
2018-03-01T18:37:28.972Z,11.52
2018-03-01T18:39:57.396Z,11.60
2018-03-01T18:42:25.828Z,13.95
2018-03-01T18:44:54.302Z,19.45
2018-03-01T18:47:22.715Z,15.80
2018-03-01T18:49:51.130Z,15.02
2018-03-01T18:52:19.669Z,18.00
2018-03-01T18:54:48.078Z,16.25
2018-03-01T18:57:16.496Z,10.07
2018-03-01T18:59:44.946Z,12.90
2018-03-01T19:02:13.364Z,12.90
2018-03-01T19:04:41.775Z,17.20
2018-03-01T19:07:10.242Z,17.42
2018-03-01T19:09:38.654Z,17.52
2018-03-01T19:12:07.066Z,20.25
2018-03-01T19:14:35.770Z,9.10
2018-03-01T19:17:04.503Z,13.23
2018-03-01T19:19:32.951Z,6.50
2018-03-01T19:22:01.434Z,10.73
2018-03-01T19:24:29.856Z,17.10
2018-03-01T19:26:58.280Z,12.90
2018-03-01T19:29:26.744Z,16.83
2018-03-01T19:31:55.160Z,7.40
2018-03-01T19:34:23.599Z,13.93
2018-03-01T19:36:52.128Z,16.27
2018-03-01T19:39:20.585Z,17.30
2018-03-01T19:41:48.997Z,14.57
2018-03-01T19:44:17.477Z,13.77
2018-03-01T19:46:45.893Z,16.70
2018-03-01T19:49:14.330Z,16.60
2018-03-01T19:51:43.142Z,14.55
2018-03-01T19:54:11.557Z,9.35
2018-03-01T19:56:39.980Z,16.87
2018-03-01T19:59:08.467Z,16.65
2018-03-01T20:01:36.888Z,13.55
2018-03-01T20:04:05.298Z,16.02
2018-03-01T20:06:33.782Z,22.13
2018-03-01T20:09:02.203Z,13.68
2018-03-01T20:11:30.616Z,18.10
2018-03-01T20:13:59.072Z,13.13
2018-03-01T20:16:27.483Z,13.98
2018-03-01T20:18:55.894Z,16.10
2018-03-01T20:21:24.350Z,9.98
2018-03-01T20:23:52.772Z,20.80
2018-03-01T20:26:21.192Z,11.20
2018-03-01T20:28:49.660Z,21.50
2018-03-01T20:31:18.086Z,17.02
2018-03-01T20:33:46.501Z,24.00
2018-03-01T20:36:14.949Z,21.80
2018-03-01T20:38:43.376Z,23.17
2018-03-01T20:41:11.801Z,22.55
2018-03-01T20:43:40.273Z,26.65
2018-03-01T20:46:08.696Z,22.00
2018-03-01T20:48:37.121Z,19.67
2018-03-01T20:51:05.575Z,22.77
2018-03-01T20:53:34.009Z,22.23
2018-03-01T20:56:02.423Z,19.50
2018-03-01T20:58:30.878Z,24.73
2018-03-01T21:00:59.305Z,21.48
2018-03-01T21:03:27.728Z,8.63
2018-03-01T21:05:56.183Z,22.25
2018-03-01T21:08:24.667Z,24.60
2018-03-01T21:10:53.096Z,17.17
2018-03-01T21:13:21.562Z,20.55
2018-03-01T21:15:50.009Z,20.00
2018-03-01T21:18:18.449Z,33.40
2018-03-01T21:20:46.925Z,23.48
2018-03-01T21:23:15.343Z,27.85
2018-03-01T21:25:43.754Z,24.85
2018-03-01T21:28:12.207Z,26.45
2018-03-01T21:30:40.622Z,27.45
2018-03-01T21:33:09.075Z,19.90
2018-03-01T21:35:37.557Z,20.35
2018-03-01T21:38:05.995Z,27.85
2018-03-01T21:40:34.455Z,24.30
2018-03-01T21:43:02.937Z,25.08
2018-03-01T21:45:31.376Z,31.95
2018-03-01T21:47:59.802Z,22.45
2018-03-01T21:50:28.271Z,26.87
2018-03-01T21:52:56.688Z,27.45
2018-03-01T21:55:25.114Z,25.25
2018-03-01T22:00:35.617Z,27.75
2018-03-01T22:03:04.037Z,24.27
2018-03-01T22:05:32.466Z,33.05
2018-03-01T22:08:00.947Z,30.67
2018-03-01T22:10:29.353Z,24.50
2018-03-01T22:12:57.790Z,30.70
2018-03-01T22:15:26.242Z,21.00
2018-03-01T22:17:54.654Z,31.25
2018-03-01T22:20:23.086Z,22.73
2018-03-01T22:22:51.572Z,27.60
2018-03-01T22:25:20.007Z,23.45
2018-03-01T22:27:48.442Z,25.95
2018-03-01T22:30:16.913Z,32.78
2018-03-01T22:32:45.374Z,22.23
2018-03-01T22:35:13.784Z,47.83
2018-03-01T22:37:42.263Z,47.42
2018-03-01T22:40:10.685Z,37.17
2018-03-01T22:42:39.113Z,41.45
2018-03-01T22:45:07.582Z,37.50
2018-03-01T22:47:36.012Z,36.60
2018-03-01T22:50:04.460Z,30.62
2018-03-01T22:52:32.998Z,36.47
2018-03-01T22:55:01.421Z,35.28
2018-03-01T22:57:29.843Z,42.47
2018-03-01T22:59:58.302Z,38.40
2018-03-01T23:02:26.717Z,30.20
2018-03-01T23:04:55.152Z,26.02
2018-03-01T23:07:23.616Z,27.73
2018-03-01T23:09:52.039Z,40.88
2018-03-01T23:12:20.476Z,28.02
2018-03-01T23:14:48.944Z,29.98
2018-03-01T23:17:17.358Z,35.92
2018-03-01T23:19:45.774Z,37.95
2018-03-01T23:22:14.252Z,31.20
2018-03-01T23:24:42.682Z,21.27
2018-03-01T23:27:11.116Z,35.72
2018-03-01T23:29:39.580Z,39.38
2018-03-01T23:32:08.004Z,32.67
2018-03-01T23:34:36.440Z,45.95
2018-03-01T23:37:04.918Z,33.67
2018-03-01T23:39:33.343Z,37.85
2018-03-01T23:42:01.771Z,28.05
2018-03-01T23:44:30.260Z,18.73
2018-03-01T23:46:58.694Z,43.60
2018-03-01T23:49:27.120Z,27.98
2018-03-01T23:51:55.587Z,25.17
2018-03-01T23:54:24.006Z,31.73
2018-03-01T23:56:52.435Z,41.10
2018-03-01T23:59:20.894Z,35.80
